Terminal Aerodrome Forecast
Issued by NWS

Home | Current Version | Previous Version | Text Only | Print | Product List | Glossary On
Versions: 1 2 3 4 5 6 7 8 9 10 11 12 13
315
FTUS45 KABQ 262334
TAFGUP
TAF
KGUP 262334Z 2700/2724 07010KT P6SM SCT250
     FM270300 VRB03KT P6SM SCT120
     FM271700 08008KT P6SM SCT120=

USA.gov is the U.S. government's official web portal to all federal, state and local government web resources and services.